sensor_id;sensor_type;location;lat;lon;timestamp;P1;durP1;ratioP1;P2;durP2;ratioP2
13171;SDS011;6651;53.200;10.432;2023-04-03T00:01:33;4.88;;;2.80;;
13171;SDS011;6651;53.200;10.432;2023-04-03T00:04:00;5.78;;;2.80;;
13171;SDS011;6651;53.200;10.432;2023-04-03T00:06:26;4.90;;;2.60;;
13171;SDS011;6651;53.200;10.432;2023-04-03T00:08:52;4.00;;;2.30;;
13171;SDS011;6651;53.200;10.432;2023-04-03T00:11:18;6.20;;;2.72;;
13171;SDS011;6651;53.200;10.432;2023-04-03T00:13:45;6.82;;;2.90;;
13171;SDS011;6651;53.200;10.432;2023-04-03T00:16:11;9.73;;;3.60;;
13171;SDS011;6651;53.200;10.432;2023-04-03T00:18:38;7.70;;;3.90;;
13171;SDS011;6651;53.200;10.432;2023-04-03T00:21:05;6.30;;;3.67;;
13171;SDS011;6651;53.200;10.432;2023-04-03T00:23:31;5.88;;;3.13;;
13171;SDS011;6651;53.200;10.432;2023-04-03T00:25:57;6.57;;;2.80;;
13171;SDS011;6651;53.200;10.432;2023-04-03T00:28:23;5.90;;;2.78;;
13171;SDS011;6651;53.200;10.432;2023-04-03T00:30:50;7.03;;;3.30;;
13171;SDS011;6651;53.200;10.432;2023-04-03T00:33:16;8.52;;;3.63;;
13171;SDS011;6651;53.200;10.432;2023-04-03T00:35:46;5.72;;;2.90;;
13171;SDS011;6651;53.200;10.432;2023-04-03T00:38:13;5.65;;;2.95;;
13171;SDS011;6651;53.200;10.432;2023-04-03T00:40:41;7.65;;;2.50;;
13171;SDS011;6651;53.200;10.432;2023-04-03T00:43:18;8.20;;;2.90;;
13171;SDS011;6651;53.200;10.432;2023-04-03T00:45:46;6.55;;;2.67;;
13171;SDS011;6651;53.200;10.432;2023-04-03T00:48:17;8.13;;;2.50;;
13171;SDS011;6651;53.200;10.432;2023-04-03T00:50:44;6.30;;;2.50;;
13171;SDS011;6651;53.200;10.432;2023-04-03T00:53:12;7.00;;;2.60;;
13171;SDS011;6651;53.200;10.432;2023-04-03T00:55:38;5.85;;;2.50;;
13171;SDS011;6651;53.200;10.432;2023-04-03T00:58:05;6.60;;;2.40;;
13171;SDS011;6651;53.200;10.432;2023-04-03T01:00:32;7.95;;;2.75;;
13171;SDS011;6651;53.200;10.432;2023-04-03T01:02:58;6.90;;;2.72;;
13171;SDS011;6651;53.200;10.432;2023-04-03T01:05:25;5.18;;;2.80;;
13171;SDS011;6651;53.200;10.432;2023-04-03T01:07:51;6.22;;;2.55;;
13171;SDS011;6651;53.200;10.432;2023-04-03T01:10:18;5.80;;;2.60;;
13171;SDS011;6651;53.200;10.432;2023-04-03T01:12:46;4.38;;;2.55;;
13171;SDS011;6651;53.200;10.432;2023-04-03T01:15:14;6.85;;;3.00;;
13171;SDS011;6651;53.200;10.432;2023-04-03T01:17:45;5.05;;;2.75;;
13171;SDS011;6651;53.200;10.432;2023-04-03T01:22:43;6.78;;;2.55;;
13171;SDS011;6651;53.200;10.432;2023-04-03T01:25:11;7.75;;;2.97;;
13171;SDS011;6651;53.200;10.432;2023-04-03T01:27:37;5.93;;;2.67;;
13171;SDS011;6651;53.200;10.432;2023-04-03T01:30:03;6.60;;;2.80;;
13171;SDS011;6651;53.200;10.432;2023-04-03T01:32:29;7.60;;;2.97;;
13171;SDS011;6651;53.200;10.432;2023-04-03T01:34:55;5.70;;;2.70;;
13171;SDS011;6651;53.200;10.432;2023-04-03T01:37:21;5.13;;;2.92;;
13171;SDS011;6651;53.200;10.432;2023-04-03T01:39:47;10.80;;;3.03;;
13171;SDS011;6651;53.200;10.432;2023-04-03T01:42:13;5.95;;;2.97;;
13171;SDS011;6651;53.200;10.432;2023-04-03T01:44:40;6.93;;;3.53;;
13171;SDS011;6651;53.200;10.432;2023-04-03T01:47:07;6.22;;;3.08;;
13171;SDS011;6651;53.200;10.432;2023-04-03T01:49:33;5.30;;;3.08;;
13171;SDS011;6651;53.200;10.432;2023-04-03T01:51:59;4.80;;;2.63;;
13171;SDS011;6651;53.200;10.432;2023-04-03T01:54:25;6.75;;;2.78;;
13171;SDS011;6651;53.200;10.432;2023-04-03T01:56:51;8.45;;;2.70;;
13171;SDS011;6651;53.200;10.432;2023-04-03T01:59:17;6.68;;;2.83;;
13171;SDS011;6651;53.200;10.432;2023-04-03T02:01:44;5.97;;;2.65;;
13171;SDS011;6651;53.200;10.432;2023-04-03T02:04:10;6.53;;;2.53;;
13171;SDS011;6651;53.200;10.432;2023-04-03T02:06:36;5.93;;;2.78;;
13171;SDS011;6651;53.200;10.432;2023-04-03T02:09:02;7.95;;;2.78;;
13171;SDS011;6651;53.200;10.432;2023-04-03T02:11:29;9.50;;;2.42;;
13171;SDS011;6651;53.200;10.432;2023-04-03T02:13:55;5.55;;;2.78;;
13171;SDS011;6651;53.200;10.432;2023-04-03T02:16:21;5.13;;;2.92;;
13171;SDS011;6651;53.200;10.432;2023-04-03T02:18:47;8.10;;;3.03;;
13171;SDS011;6651;53.200;10.432;2023-04-03T02:21:13;5.97;;;2.90;;
13171;SDS011;6651;53.200;10.432;2023-04-03T02:23:39;6.05;;;2.65;;
13171;SDS011;6651;53.200;10.432;2023-04-03T02:26:06;6.85;;;3.05;;
13171;SDS011;6651;53.200;10.432;2023-04-03T02:28:32;5.45;;;2.72;;
13171;SDS011;6651;53.200;10.432;2023-04-03T02:30:58;4.97;;;2.88;;
13171;SDS011;6651;53.200;10.432;2023-04-03T02:33:24;5.05;;;2.70;;
13171;SDS011;6651;53.200;10.432;2023-04-03T02:35:54;6.85;;;3.05;;
13171;SDS011;6651;53.200;10.432;2023-04-03T02:38:21;6.15;;;2.70;;
13171;SDS011;6651;53.200;10.432;2023-04-03T02:40:47;6.25;;;2.90;;
13171;SDS011;6651;53.200;10.432;2023-04-03T02:43:13;8.50;;;3.30;;
13171;SDS011;6651;53.200;10.432;2023-04-03T02:45:39;8.27;;;3.10;;
13171;SDS011;6651;53.200;10.432;2023-04-03T02:48:05;7.28;;;3.13;;
13171;SDS011;6651;53.200;10.432;2023-04-03T02:50:31;5.88;;;2.88;;
13171;SDS011;6651;53.200;10.432;2023-04-03T02:52:57;6.10;;;3.00;;
13171;SDS011;6651;53.200;10.432;2023-04-03T02:55:23;4.20;;;3.00;;
13171;SDS011;6651;53.200;10.432;2023-04-03T02:57:49;10.63;;;3.28;;
13171;SDS011;6651;53.200;10.432;2023-04-03T03:00:15;5.07;;;2.95;;
13171;SDS011;6651;53.200;10.432;2023-04-03T03:02:41;6.65;;;2.97;;
13171;SDS011;6651;53.200;10.432;2023-04-03T03:05:08;8.60;;;3.20;;
13171;SDS011;6651;53.200;10.432;2023-04-03T03:07:34;6.07;;;3.40;;
13171;SDS011;6651;53.200;10.432;2023-04-03T03:10:00;6.72;;;3.40;;
13171;SDS011;6651;53.200;10.432;2023-04-03T03:12:26;7.07;;;2.97;;
13171;SDS011;6651;53.200;10.432;2023-04-03T03:14:52;6.13;;;3.22;;
13171;SDS011;6651;53.200;10.432;2023-04-03T03:17:18;8.55;;;3.50;;
13171;SDS011;6651;53.200;10.432;2023-04-03T03:19:44;6.88;;;3.83;;
13171;SDS011;6651;53.200;10.432;2023-04-03T03:22:11;8.93;;;3.58;;
13171;SDS011;6651;53.200;10.432;2023-04-03T03:24:37;6.82;;;3.30;;
13171;SDS011;6651;53.200;10.432;2023-04-03T03:27:03;7.07;;;3.30;;
13171;SDS011;6651;53.200;10.432;2023-04-03T03:29:29;9.48;;;3.45;;
13171;SDS011;6651;53.200;10.432;2023-04-03T03:31:55;8.73;;;3.47;;
13171;SDS011;6651;53.200;10.432;2023-04-03T03:34:21;10.10;;;3.78;;
13171;SDS011;6651;53.200;10.432;2023-04-03T03:36:47;6.80;;;3.13;;
13171;SDS011;6651;53.200;10.432;2023-04-03T03:39:13;8.57;;;3.67;;
13171;SDS011;6651;53.200;10.432;2023-04-03T03:41:39;5.72;;;3.33;;
13171;SDS011;6651;53.200;10.432;2023-04-03T03:44:05;7.28;;;3.22;;
13171;SDS011;6651;53.200;10.432;2023-04-03T03:46:31;7.30;;;3.50;;
13171;SDS011;6651;53.200;10.432;2023-04-03T03:48:57;4.70;;;2.90;;
13171;SDS011;6651;53.200;10.432;2023-04-03T03:51:24;7.05;;;3.08;;
13171;SDS011;6651;53.200;10.432;2023-04-03T03:53:50;7.70;;;3.25;;
13171;SDS011;6651;53.200;10.432;2023-04-03T03:56:16;7.30;;;3.58;;
13171;SDS011;6651;53.200;10.432;2023-04-03T03:58:42;9.15;;;4.03;;
13171;SDS011;6651;53.200;10.432;2023-04-03T04:01:08;9.02;;;3.65;;
13171;SDS011;6651;53.200;10.432;2023-04-03T04:03:34;8.57;;;3.85;;
13171;SDS011;6651;53.200;10.432;2023-04-03T04:06:00;6.22;;;3.30;;
13171;SDS011;6651;53.200;10.432;2023-04-03T04:08:26;6.53;;;3.05;;
13171;SDS011;6651;53.200;10.432;2023-04-03T04:10:52;4.28;;;2.90;;
13171;SDS011;6651;53.200;10.432;2023-04-03T04:13:18;8.35;;;3.60;;
13171;SDS011;6651;53.200;10.432;2023-04-03T04:15:44;7.00;;;3.25;;
13171;SDS011;6651;53.200;10.432;2023-04-03T04:18:10;7.35;;;3.30;;
13171;SDS011;6651;53.200;10.432;2023-04-03T04:20:36;4.95;;;3.10;;
13171;SDS011;6651;53.200;10.432;2023-04-03T04:23:02;8.30;;;3.20;;
13171;SDS011;6651;53.200;10.432;2023-04-03T04:25:28;6.85;;;3.53;;
13171;SDS011;6651;53.200;10.432;2023-04-03T04:27:55;6.95;;;3.15;;
13171;SDS011;6651;53.200;10.432;2023-04-03T04:30:20;4.80;;;3.22;;
13171;SDS011;6651;53.200;10.432;2023-04-03T04:32:46;6.90;;;3.30;;
13171;SDS011;6651;53.200;10.432;2023-04-03T04:35:12;5.18;;;2.88;;
13171;SDS011;6651;53.200;10.432;2023-04-03T04:37:38;7.38;;;3.30;;
13171;SDS011;6651;53.200;10.432;2023-04-03T04:40:05;6.97;;;3.58;;
13171;SDS011;6651;53.200;10.432;2023-04-03T04:42:31;7.13;;;3.55;;
13171;SDS011;6651;53.200;10.432;2023-04-03T04:44:57;5.93;;;3.55;;
13171;SDS011;6651;53.200;10.432;2023-04-03T04:47:23;4.90;;;2.83;;
13171;SDS011;6651;53.200;10.432;2023-04-03T04:49:49;6.60;;;2.90;;
13171;SDS011;6651;53.200;10.432;2023-04-03T04:52:15;6.60;;;3.03;;
13171;SDS011;6651;53.200;10.432;2023-04-03T04:54:41;4.75;;;3.10;;
13171;SDS011;6651;53.200;10.432;2023-04-03T04:57:07;5.00;;;3.33;;
13171;SDS011;6651;53.200;10.432;2023-04-03T04:59:33;6.68;;;3.40;;
13171;SDS011;6651;53.200;10.432;2023-04-03T05:01:59;4.88;;;2.80;;
13171;SDS011;6651;53.200;10.432;2023-04-03T05:04:25;6.45;;;3.30;;
13171;SDS011;6651;53.200;10.432;2023-04-03T05:06:51;7.40;;;3.03;;
13171;SDS011;6651;53.200;10.432;2023-04-03T05:09:17;4.60;;;3.05;;
13171;SDS011;6651;53.200;10.432;2023-04-03T05:11:45;6.43;;;2.88;;
13171;SDS011;6651;53.200;10.432;2023-04-03T05:14:11;5.88;;;3.40;;
13171;SDS011;6651;53.200;10.432;2023-04-03T05:16:37;7.18;;;3.45;;
13171;SDS011;6651;53.200;10.432;2023-04-03T05:19:03;4.93;;;3.20;;
13171;SDS011;6651;53.200;10.432;2023-04-03T05:21:30;7.45;;;3.40;;
13171;SDS011;6651;53.200;10.432;2023-04-03T05:24:00;6.53;;;3.50;;
13171;SDS011;6651;53.200;10.432;2023-04-03T05:26:28;6.03;;;3.28;;
13171;SDS011;6651;53.200;10.432;2023-04-03T05:28:54;4.38;;;2.92;;
13171;SDS011;6651;53.200;10.432;2023-04-03T05:31:21;7.03;;;3.33;;
13171;SDS011;6651;53.200;10.432;2023-04-03T05:33:47;6.10;;;3.40;;
13171;SDS011;6651;53.200;10.432;2023-04-03T05:36:13;7.15;;;3.40;;
13171;SDS011;6651;53.200;10.432;2023-04-03T05:38:39;5.68;;;3.58;;
13171;SDS011;6651;53.200;10.432;2023-04-03T05:41:06;8.63;;;4.07;;
13171;SDS011;6651;53.200;10.432;2023-04-03T05:43:32;8.80;;;5.38;;
13171;SDS011;6651;53.200;10.432;2023-04-03T05:45:59;10.07;;;6.85;;
13171;SDS011;6651;53.200;10.432;2023-04-03T05:48:25;10.25;;;6.75;;
13171;SDS011;6651;53.200;10.432;2023-04-03T05:50:51;7.75;;;4.88;;
13171;SDS011;6651;53.200;10.432;2023-04-03T05:53:21;8.05;;;3.30;;
13171;SDS011;6651;53.200;10.432;2023-04-03T05:55:49;7.85;;;3.65;;
13171;SDS011;6651;53.200;10.432;2023-04-03T05:58:15;6.78;;;3.42;;
13171;SDS011;6651;53.200;10.432;2023-04-03T06:00:41;6.68;;;2.92;;
13171;SDS011;6651;53.200;10.432;2023-04-03T06:03:07;6.72;;;2.85;;
13171;SDS011;6651;53.200;10.432;2023-04-03T06:05:33;7.07;;;2.97;;
13171;SDS011;6651;53.200;10.432;2023-04-03T06:08:00;6.82;;;3.47;;
13171;SDS011;6651;53.200;10.432;2023-04-03T06:10:26;7.53;;;3.53;;
13171;SDS011;6651;53.200;10.432;2023-04-03T06:12:52;6.22;;;3.45;;
13171;SDS011;6651;53.200;10.432;2023-04-03T06:15:18;7.57;;;3.55;;
13171;SDS011;6651;53.200;10.432;2023-04-03T06:17:45;7.05;;;3.60;;
13171;SDS011;6651;53.200;10.432;2023-04-03T06:20:11;9.35;;;3.90;;
13171;SDS011;6651;53.200;10.432;2023-04-03T06:22:38;7.30;;;3.70;;
13171;SDS011;6651;53.200;10.432;2023-04-03T06:25:04;6.93;;;3.38;;
13171;SDS011;6651;53.200;10.432;2023-04-03T06:27:31;8.20;;;3.75;;
13171;SDS011;6651;53.200;10.432;2023-04-03T06:29:57;6.78;;;3.22;;
13171;SDS011;6651;53.200;10.432;2023-04-03T06:32:23;7.93;;;2.72;;
13171;SDS011;6651;53.200;10.432;2023-04-03T06:34:50;5.40;;;2.90;;
13171;SDS011;6651;53.200;10.432;2023-04-03T06:37:20;4.68;;;2.42;;
13171;SDS011;6651;53.200;10.432;2023-04-03T06:39:47;7.13;;;3.00;;
13171;SDS011;6651;53.200;10.432;2023-04-03T06:42:13;7.75;;;2.67;;
13171;SDS011;6651;53.200;10.432;2023-04-03T06:44:39;7.88;;;2.50;;
13171;SDS011;6651;53.200;10.432;2023-04-03T06:47:05;4.65;;;2.50;;
13171;SDS011;6651;53.200;10.432;2023-04-03T06:49:31;4.35;;;2.33;;
13171;SDS011;6651;53.200;10.432;2023-04-03T06:51:57;7.70;;;2.67;;
13171;SDS011;6651;53.200;10.432;2023-04-03T06:54:24;3.63;;;2.20;;
13171;SDS011;6651;53.200;10.432;2023-04-03T06:56:50;4.97;;;2.08;;
13171;SDS011;6651;53.200;10.432;2023-04-03T06:59:16;5.80;;;1.98;;
13171;SDS011;6651;53.200;10.432;2023-04-03T07:01:42;5.47;;;2.30;;
13171;SDS011;6651;53.200;10.432;2023-04-03T07:04:08;4.53;;;1.98;;
13171;SDS011;6651;53.200;10.432;2023-04-03T07:06:34;4.18;;;2.28;;
13171;SDS011;6651;53.200;10.432;2023-04-03T07:09:00;4.72;;;2.10;;
13171;SDS011;6651;53.200;10.432;2023-04-03T07:11:26;2.58;;;2.00;;
13171;SDS011;6651;53.200;10.432;2023-04-03T07:13:53;4.75;;;2.10;;
13171;SDS011;6651;53.200;10.432;2023-04-03T07:16:19;4.07;;;2.00;;
13171;SDS011;6651;53.200;10.432;2023-04-03T07:18:45;3.60;;;1.70;;
13171;SDS011;6651;53.200;10.432;2023-04-03T07:21:12;3.05;;;1.70;;
13171;SDS011;6651;53.200;10.432;2023-04-03T07:23:38;3.75;;;2.00;;
13171;SDS011;6651;53.200;10.432;2023-04-03T07:26:05;4.88;;;2.10;;
13171;SDS011;6651;53.200;10.432;2023-04-03T07:28:31;4.63;;;2.05;;
13171;SDS011;6651;53.200;10.432;2023-04-03T07:31:05;3.20;;;1.70;;
13171;SDS011;6651;53.200;10.432;2023-04-03T07:33:33;3.45;;;2.10;;
13171;SDS011;6651;53.200;10.432;2023-04-03T07:36:00;4.53;;;1.60;;
13171;SDS011;6651;53.200;10.432;2023-04-03T07:38:26;3.72;;;1.90;;
13171;SDS011;6651;53.200;10.432;2023-04-03T07:40:52;5.15;;;2.05;;
13171;SDS011;6651;53.200;10.432;2023-04-03T07:43:18;4.97;;;1.95;;
13171;SDS011;6651;53.200;10.432;2023-04-03T07:45:45;6.70;;;1.83;;
13171;SDS011;6651;53.200;10.432;2023-04-03T07:48:12;6.95;;;1.95;;
13171;SDS011;6651;53.200;10.432;2023-04-03T07:50:42;3.35;;;1.70;;
13171;SDS011;6651;53.200;10.432;2023-04-03T07:53:08;4.65;;;1.92;;
13171;SDS011;6651;53.200;10.432;2023-04-03T07:55:35;4.10;;;2.00;;
13171;SDS011;6651;53.200;10.432;2023-04-03T07:58:08;4.90;;;1.95;;
13171;SDS011;6651;53.200;10.432;2023-04-03T08:00:34;6.15;;;1.88;;
13171;SDS011;6651;53.200;10.432;2023-04-03T08:03:00;5.43;;;1.95;;
13171;SDS011;6651;53.200;10.432;2023-04-03T08:05:27;5.97;;;1.83;;
13171;SDS011;6651;53.200;10.432;2023-04-03T08:07:53;5.07;;;1.98;;
13171;SDS011;6651;53.200;10.432;2023-04-03T08:10:19;4.88;;;1.85;;
13171;SDS011;6651;53.200;10.432;2023-04-03T08:12:46;3.72;;;1.70;;
13171;SDS011;6651;53.200;10.432;2023-04-03T08:15:11;4.30;;;1.65;;
13171;SDS011;6651;53.200;10.432;2023-04-03T08:17:37;4.18;;;1.98;;
13171;SDS011;6651;53.200;10.432;2023-04-03T08:20:04;3.17;;;1.75;;
13171;SDS011;6651;53.200;10.432;2023-04-03T08:22:31;6.20;;;1.83;;
13171;SDS011;6651;53.200;10.432;2023-04-03T08:24:57;3.92;;;1.70;;
13171;SDS011;6651;53.200;10.432;2023-04-03T08:27:23;3.42;;;1.52;;
13171;SDS011;6651;53.200;10.432;2023-04-03T08:29:49;4.57;;;1.83;;
13171;SDS011;6651;53.200;10.432;2023-04-03T08:32:16;5.07;;;1.75;;
13171;SDS011;6651;53.200;10.432;2023-04-03T08:34:43;3.20;;;1.48;;
13171;SDS011;6651;53.200;10.432;2023-04-03T08:37:09;3.85;;;1.60;;
13171;SDS011;6651;53.200;10.432;2023-04-03T08:39:35;3.30;;;1.75;;
13171;SDS011;6651;53.200;10.432;2023-04-03T08:42:03;2.83;;;1.65;;
13171;SDS011;6651;53.200;10.432;2023-04-03T08:47:02;3.13;;;1.65;;
13171;SDS011;6651;53.200;10.432;2023-04-03T08:49:34;4.05;;;1.52;;
13171;SDS011;6651;53.200;10.432;2023-04-03T08:52:05;5.72;;;1.73;;
13171;SDS011;6651;53.200;10.432;2023-04-03T08:54:57;4.85;;;1.60;;
13171;SDS011;6651;53.200;10.432;2023-04-03T08:57:41;5.05;;;1.40;;
13171;SDS011;6651;53.200;10.432;2023-04-03T09:00:16;2.60;;;1.35;;
13171;SDS011;6651;53.200;10.432;2023-04-03T09:02:46;3.03;;;1.45;;
13171;SDS011;6651;53.200;10.432;2023-04-03T09:05:14;3.78;;;1.60;;
13171;SDS011;6651;53.200;10.432;2023-04-03T09:08:00;2.53;;;1.30;;
13171;SDS011;6651;53.200;10.432;2023-04-03T09:10:28;4.18;;;1.50;;
13171;SDS011;6651;53.200;10.432;2023-04-03T09:13:01;2.92;;;1.35;;
13171;SDS011;6651;53.200;10.432;2023-04-03T09:15:32;4.13;;;1.33;;
13171;SDS011;6651;53.200;10.432;2023-04-03T09:18:00;3.15;;;1.77;;
13171;SDS011;6651;53.200;10.432;2023-04-03T09:22:54;2.75;;;1.60;;
13171;SDS011;6651;53.200;10.432;2023-04-03T09:25:24;3.03;;;1.42;;
13171;SDS011;6651;53.200;10.432;2023-04-03T09:27:51;2.42;;;1.15;;
13171;SDS011;6651;53.200;10.432;2023-04-03T09:30:19;3.67;;;1.70;;
13171;SDS011;6651;53.200;10.432;2023-04-03T09:32:47;3.65;;;1.50;;
13171;SDS011;6651;53.200;10.432;2023-04-03T09:37:43;3.03;;;1.60;;
13171;SDS011;6651;53.200;10.432;2023-04-03T09:42:51;2.33;;;1.23;;
13171;SDS011;6651;53.200;10.432;2023-04-03T09:47:57;3.05;;;1.50;;
13171;SDS011;6651;53.200;10.432;2023-04-03T09:50:30;4.93;;;1.67;;
13171;SDS011;6651;53.200;10.432;2023-04-03T09:52:56;2.83;;;1.55;;
13171;SDS011;6651;53.200;10.432;2023-04-03T09:55:23;2.83;;;1.58;;
13171;SDS011;6651;53.200;10.432;2023-04-03T09:57:54;5.63;;;1.50;;
13171;SDS011;6651;53.200;10.432;2023-04-03T10:00:31;3.47;;;1.60;;
13171;SDS011;6651;53.200;10.432;2023-04-03T10:02:59;3.25;;;1.67;;
13171;SDS011;6651;53.200;10.432;2023-04-03T10:05:38;2.88;;;1.67;;
13171;SDS011;6651;53.200;10.432;2023-04-03T10:10:46;2.28;;;1.27;;
13171;SDS011;6651;53.200;10.432;2023-04-03T10:13:14;3.08;;;1.50;;
13171;SDS011;6651;53.200;10.432;2023-04-03T10:15:46;3.92;;;1.73;;
13171;SDS011;6651;53.200;10.432;2023-04-03T10:18:36;6.53;;;1.85;;
13171;SDS011;6651;53.200;10.432;2023-04-03T10:34:39;3.35;;;1.83;;
13171;SDS011;6651;53.200;10.432;2023-04-03T10:39:56;3.20;;;1.20;;
13171;SDS011;6651;53.200;10.432;2023-04-03T10:45:42;2.88;;;1.50;;
13171;SDS011;6651;53.200;10.432;2023-04-03T10:56:04;2.20;;;1.30;;
13171;SDS011;6651;53.200;10.432;2023-04-03T10:58:43;2.60;;;1.25;;
13171;SDS011;6651;53.200;10.432;2023-04-03T11:01:14;3.45;;;1.33;;
13171;SDS011;6651;53.200;10.432;2023-04-03T11:03:44;3.20;;;1.30;;
13171;SDS011;6651;53.200;10.432;2023-04-03T11:06:11;3.78;;;1.55;;
13171;SDS011;6651;53.200;10.432;2023-04-03T11:08:41;3.15;;;1.77;;
13171;SDS011;6651;53.200;10.432;2023-04-03T11:11:09;3.03;;;1.45;;
13171;SDS011;6651;53.200;10.432;2023-04-03T11:13:39;3.35;;;1.50;;
13171;SDS011;6651;53.200;10.432;2023-04-03T11:16:07;3.55;;;1.55;;
13171;SDS011;6651;53.200;10.432;2023-04-03T11:18:41;3.33;;;1.50;;
13171;SDS011;6651;53.200;10.432;2023-04-03T11:23:36;1.92;;;1.23;;
13171;SDS011;6651;53.200;10.432;2023-04-03T11:26:21;2.50;;;1.20;;
13171;SDS011;6651;53.200;10.432;2023-04-03T11:28:52;3.33;;;1.42;;
13171;SDS011;6651;53.200;10.432;2023-04-03T11:36:29;3.20;;;1.70;;
13171;SDS011;6651;53.200;10.432;2023-04-03T11:38:57;3.05;;;1.50;;
13171;SDS011;6651;53.200;10.432;2023-04-03T11:41:26;3.85;;;1.50;;
13171;SDS011;6651;53.200;10.432;2023-04-03T11:46:22;3.80;;;1.30;;
13171;SDS011;6651;53.200;10.432;2023-04-03T11:48:49;1.30;;;1.20;;
13171;SDS011;6651;53.200;10.432;2023-04-03T11:53:41;3.38;;;1.55;;
13171;SDS011;6651;53.200;10.432;2023-04-03T11:56:50;3.67;;;1.90;;
13171;SDS011;6651;53.200;10.432;2023-04-03T12:01:43;4.35;;;1.55;;
13171;SDS011;6651;53.200;10.432;2023-04-03T12:04:10;3.72;;;1.75;;
13171;SDS011;6651;53.200;10.432;2023-04-03T12:09:27;3.67;;;1.48;;
13171;SDS011;6651;53.200;10.432;2023-04-03T12:11:52;3.20;;;1.45;;
13171;SDS011;6651;53.200;10.432;2023-04-03T12:14:18;3.03;;;1.58;;
13171;SDS011;6651;53.200;10.432;2023-04-03T12:16:47;2.58;;;1.77;;
13171;SDS011;6651;53.200;10.432;2023-04-03T12:26:44;4.00;;;1.50;;
13171;SDS011;6651;53.200;10.432;2023-04-03T12:31:53;3.80;;;1.77;;
13171;SDS011;6651;53.200;10.432;2023-04-03T12:39:44;4.22;;;1.85;;
13171;SDS011;6651;53.200;10.432;2023-04-03T12:42:21;2.67;;;1.90;;
13171;SDS011;6651;53.200;10.432;2023-04-03T12:44:53;2.38;;;1.42;;
13171;SDS011;6651;53.200;10.432;2023-04-03T12:47:29;3.90;;;1.70;;
13171;SDS011;6651;53.200;10.432;2023-04-03T12:49:58;4.05;;;1.90;;
13171;SDS011;6651;53.200;10.432;2023-04-03T12:52:30;3.10;;;1.70;;
13171;SDS011;6651;53.200;10.432;2023-04-03T12:55:00;2.60;;;1.73;;
13171;SDS011;6651;53.200;10.432;2023-04-03T12:57:29;2.08;;;1.52;;
13171;SDS011;6651;53.200;10.432;2023-04-03T12:59:57;2.60;;;1.55;;
13171;SDS011;6651;53.200;10.432;2023-04-03T13:02:25;3.25;;;1.42;;
13171;SDS011;6651;53.200;10.432;2023-04-03T13:04:58;3.42;;;1.73;;
13171;SDS011;6651;53.200;10.432;2023-04-03T13:07:29;3.03;;;1.55;;
13171;SDS011;6651;53.200;10.432;2023-04-03T13:09:59;4.40;;;1.73;;
13171;SDS011;6651;53.200;10.432;2023-04-03T13:12:26;4.75;;;1.85;;
13171;SDS011;6651;53.200;10.432;2023-04-03T13:14:53;4.35;;;2.22;;
13171;SDS011;6651;53.200;10.432;2023-04-03T13:17:19;2.90;;;1.90;;
13171;SDS011;6651;53.200;10.432;2023-04-03T13:19:46;3.05;;;1.75;;
13171;SDS011;6651;53.200;10.432;2023-04-03T13:24:44;1.92;;;1.40;;
13171;SDS011;6651;53.200;10.432;2023-04-03T13:27:12;3.55;;;1.80;;
13171;SDS011;6651;53.200;10.432;2023-04-03T13:29:38;4.35;;;2.00;;
13171;SDS011;6651;53.200;10.432;2023-04-03T13:32:05;4.53;;;1.77;;
13171;SDS011;6651;53.200;10.432;2023-04-03T13:34:38;1.67;;;1.50;;
13171;SDS011;6651;53.200;10.432;2023-04-03T13:37:06;3.58;;;1.38;;
13171;SDS011;6651;53.200;10.432;2023-04-03T13:39:37;3.53;;;1.65;;
13171;SDS011;6651;53.200;10.432;2023-04-03T13:47:44;3.58;;;1.60;;
13171;SDS011;6651;53.200;10.432;2023-04-03T13:53:00;4.03;;;1.60;;
13171;SDS011;6651;53.200;10.432;2023-04-03T13:55:31;2.22;;;1.30;;
13171;SDS011;6651;53.200;10.432;2023-04-03T13:58:16;2.58;;;1.17;;
13171;SDS011;6651;53.200;10.432;2023-04-03T14:03:43;2.53;;;1.77;;
13171;SDS011;6651;53.200;10.432;2023-04-03T14:06:11;3.70;;;1.50;;
13171;SDS011;6651;53.200;10.432;2023-04-03T14:08:38;2.08;;;1.27;;
13171;SDS011;6651;53.200;10.432;2023-04-03T14:11:04;4.05;;;1.50;;
13171;SDS011;6651;53.200;10.432;2023-04-03T14:13:30;3.10;;;1.60;;
13171;SDS011;6651;53.200;10.432;2023-04-03T14:15:57;3.97;;;1.52;;
13171;SDS011;6651;53.200;10.432;2023-04-03T14:18:23;6.38;;;1.55;;
13171;SDS011;6651;53.200;10.432;2023-04-03T14:20:49;3.55;;;1.75;;
13171;SDS011;6651;53.200;10.432;2023-04-03T14:23:15;2.13;;;1.27;;
13171;SDS011;6651;53.200;10.432;2023-04-03T14:25:41;1.65;;;1.55;;
13171;SDS011;6651;53.200;10.432;2023-04-03T14:28:15;3.33;;;1.65;;
13171;SDS011;6651;53.200;10.432;2023-04-03T14:30:42;3.78;;;1.80;;
13171;SDS011;6651;53.200;10.432;2023-04-03T14:33:10;2.42;;;1.30;;
13171;SDS011;6651;53.200;10.432;2023-04-03T14:35:36;3.05;;;2.20;;
13171;SDS011;6651;53.200;10.432;2023-04-03T14:38:02;5.13;;;2.03;;
13171;SDS011;6651;53.200;10.432;2023-04-03T14:40:31;2.03;;;1.48;;
13171;SDS011;6651;53.200;10.432;2023-04-03T14:42:57;2.53;;;1.58;;
13171;SDS011;6651;53.200;10.432;2023-04-03T14:45:24;3.65;;;1.40;;
13171;SDS011;6651;53.200;10.432;2023-04-03T14:47:52;3.20;;;1.50;;
13171;SDS011;6651;53.200;10.432;2023-04-03T14:50:20;2.63;;;1.10;;
13171;SDS011;6651;53.200;10.432;2023-04-03T14:52:46;5.13;;;1.48;;
13171;SDS011;6651;53.200;10.432;2023-04-03T14:55:14;2.95;;;1.42;;
13171;SDS011;6651;53.200;10.432;2023-04-03T14:57:41;3.30;;;1.42;;
13171;SDS011;6651;53.200;10.432;2023-04-03T15:00:10;3.90;;;1.42;;
13171;SDS011;6651;53.200;10.432;2023-04-03T15:02:38;1.92;;;1.25;;
13171;SDS011;6651;53.200;10.432;2023-04-03T15:05:05;3.03;;;1.30;;
13171;SDS011;6651;53.200;10.432;2023-04-03T15:07:42;2.42;;;1.40;;
13171;SDS011;6651;53.200;10.432;2023-04-03T15:12:40;2.15;;;1.35;;
13171;SDS011;6651;53.200;10.432;2023-04-03T15:15:07;2.92;;;1.60;;
13171;SDS011;6651;53.200;10.432;2023-04-03T15:17:34;2.03;;;1.45;;
13171;SDS011;6651;53.200;10.432;2023-04-03T15:20:01;2.08;;;1.25;;
13171;SDS011;6651;53.200;10.432;2023-04-03T15:22:27;1.85;;;1.40;;
13171;SDS011;6651;53.200;10.432;2023-04-03T15:24:53;2.78;;;1.48;;
13171;SDS011;6651;53.200;10.432;2023-04-03T15:27:19;2.42;;;1.33;;
13171;SDS011;6651;53.200;10.432;2023-04-03T15:29:45;2.22;;;1.50;;
13171;SDS011;6651;53.200;10.432;2023-04-03T15:32:11;2.22;;;1.60;;
13171;SDS011;6651;53.200;10.432;2023-04-03T15:34:38;2.65;;;1.60;;
13171;SDS011;6651;53.200;10.432;2023-04-03T15:37:04;1.65;;;1.30;;
13171;SDS011;6651;53.200;10.432;2023-04-03T15:39:30;2.38;;;1.40;;
13171;SDS011;6651;53.200;10.432;2023-04-03T15:41:57;4.78;;;1.60;;
13171;SDS011;6651;53.200;10.432;2023-04-03T15:44:29;2.45;;;1.23;;
13171;SDS011;6651;53.200;10.432;2023-04-03T15:46:55;2.35;;;1.10;;
13171;SDS011;6651;53.200;10.432;2023-04-03T15:49:21;3.20;;;1.30;;
13171;SDS011;6651;53.200;10.432;2023-04-03T15:51:48;2.60;;;1.63;;
13171;SDS011;6651;53.200;10.432;2023-04-03T15:54:14;3.55;;;1.42;;
13171;SDS011;6651;53.200;10.432;2023-04-03T15:56:40;2.55;;;1.13;;
13171;SDS011;6651;53.200;10.432;2023-04-03T15:59:06;4.05;;;1.58;;
13171;SDS011;6651;53.200;10.432;2023-04-03T16:01:32;1.10;;;1.10;;
13171;SDS011;6651;53.200;10.432;2023-04-03T16:03:58;2.70;;;1.23;;
13171;SDS011;6651;53.200;10.432;2023-04-03T16:06:24;4.10;;;1.55;;
13171;SDS011;6651;53.200;10.432;2023-04-03T16:08:51;3.85;;;1.65;;
13171;SDS011;6651;53.200;10.432;2023-04-03T16:11:21;4.07;;;1.60;;
13171;SDS011;6651;53.200;10.432;2023-04-03T16:13:47;2.47;;;1.30;;
13171;SDS011;6651;53.200;10.432;2023-04-03T16:16:13;2.47;;;1.45;;
13171;SDS011;6651;53.200;10.432;2023-04-03T16:18:39;3.90;;;1.85;;
13171;SDS011;6651;53.200;10.432;2023-04-03T16:21:06;2.05;;;1.55;;
13171;SDS011;6651;53.200;10.432;2023-04-03T16:23:33;1.83;;;1.20;;
13171;SDS011;6651;53.200;10.432;2023-04-03T16:25:59;2.75;;;1.33;;